createdAt,value
2018-04-12T00:01:03.306Z,13.40
2018-04-12T00:03:31.597Z,13.40
2018-04-12T00:06:00.488Z,13.40
2018-04-12T00:08:28.737Z,13.40
2018-04-12T00:10:57.048Z,13.40
2018-04-12T00:13:25.305Z,13.40
2018-04-12T00:15:53.610Z,13.40
2018-04-12T00:18:21.861Z,13.40
2018-04-12T00:20:50.304Z,13.50
2018-04-12T00:23:19.585Z,13.40
2018-04-12T00:25:48.298Z,13.40
2018-04-12T00:28:16.548Z,13.40
2018-04-12T00:30:44.830Z,13.30
2018-04-12T00:33:13.108Z,13.40
2018-04-12T00:35:41.387Z,13.30
2018-04-12T00:38:09.632Z,13.30
2018-04-12T00:40:37.892Z,13.30
2018-04-12T00:43:06.938Z,13.30
2018-04-12T00:45:35.204Z,13.30
2018-04-12T00:48:03.452Z,13.30
2018-04-12T00:50:32.492Z,13.20
2018-04-12T00:53:00.742Z,13.20
2018-04-12T00:55:29.015Z,13.20
2018-04-12T00:57:58.048Z,13.20
2018-04-12T01:00:26.339Z,13.20
2018-04-12T01:02:54.592Z,13.20
2018-04-12T01:05:22.865Z,13.20
2018-04-12T01:07:51.878Z,13.20
2018-04-12T01:10:20.141Z,13.10
2018-04-12T01:12:48.404Z,13.10
2018-04-12T01:15:17.437Z,13.20
2018-04-12T01:17:45.735Z,13.20
2018-04-12T01:20:14.044Z,13.20
2018-04-12T01:22:42.292Z,13.30
2018-04-12T01:25:10.572Z,13.20
2018-04-12T01:27:38.855Z,13.20
2018-04-12T01:30:07.127Z,13.20
2018-04-12T01:32:35.383Z,13.20
2018-04-12T01:35:04.415Z,13.10
2018-04-12T01:37:32.693Z,13.20
2018-04-12T01:40:00.962Z,13.10
2018-04-12T01:42:29.253Z,13.10
2018-04-12T01:44:57.525Z,13.10
2018-04-12T01:47:25.765Z,13.20
2018-04-12T01:49:54.901Z,13.10
2018-04-12T01:52:23.155Z,13.10
2018-04-12T01:54:51.428Z,13.10
2018-04-12T01:57:20.466Z,13.10
2018-04-12T01:59:48.729Z,13.10
2018-04-12T02:02:17.012Z,13.10
2018-04-12T02:04:45.268Z,13.10
2018-04-12T02:07:13.543Z,13.10
2018-04-12T02:09:41.801Z,13.10
2018-04-12T02:12:10.069Z,13.00
2018-04-12T02:14:38.311Z,13.10
2018-04-12T02:17:06.688Z,13.10
2018-04-12T02:19:35.004Z,13.00
2018-04-12T02:22:03.259Z,13.10
2018-04-12T02:24:31.516Z,13.10
2018-04-12T02:26:59.816Z,13.10
2018-04-12T02:29:28.077Z,13.10
2018-04-12T02:31:56.341Z,13.10
2018-04-12T02:34:24.592Z,13.10
2018-04-12T02:36:53.744Z,13.10
2018-04-12T02:39:22.028Z,13.10
2018-04-12T02:41:50.408Z,13.10
2018-04-12T02:44:18.689Z,13.00
2018-04-12T02:46:47.061Z,13.10
2018-04-12T02:49:15.320Z,13.00
2018-04-12T02:51:43.589Z,13.10
2018-04-12T02:54:11.913Z,13.10
2018-04-12T02:56:40.186Z,13.10
2018-04-12T02:59:08.444Z,13.10
2018-04-12T03:01:36.717Z,13.10
2018-04-12T03:04:04.987Z,13.10
2018-04-12T03:06:34.023Z,13.00
2018-04-12T03:09:02.282Z,13.00
2018-04-12T03:11:30.556Z,13.00
2018-04-12T03:13:58.809Z,13.10
2018-04-12T03:16:27.852Z,13.10
2018-04-12T03:18:56.132Z,13.10
2018-04-12T03:21:24.401Z,13.20
2018-04-12T03:23:52.696Z,13.20
2018-04-12T03:26:20.966Z,13.20
2018-04-12T03:28:49.213Z,13.20
2018-04-12T03:31:17.478Z,13.30
2018-04-12T03:33:46.516Z,13.30
2018-04-12T03:36:14.802Z,13.30
2018-04-12T03:38:43.086Z,13.30
2018-04-12T03:41:11.343Z,13.30
2018-04-12T03:43:39.641Z,13.30
2018-04-12T03:46:07.923Z,13.30
2018-04-12T03:48:36.198Z,13.30
2018-04-12T03:51:04.445Z,13.40
2018-04-12T03:53:32.716Z,13.40
2018-04-12T03:56:01.742Z,13.40
2018-04-12T03:58:30.045Z,13.40
2018-04-12T04:00:58.949Z,13.30
2018-04-12T04:03:27.469Z,13.30
2018-04-12T04:05:56.486Z,13.20
2018-04-12T04:08:24.825Z,13.20
2018-04-12T04:10:53.055Z,13.30
2018-04-12T04:13:21.333Z,13.20
2018-04-12T04:16:01.540Z,13.20
2018-04-12T04:21:33.388Z,13.20
2018-04-12T04:24:01.656Z,13.20
2018-04-12T04:26:30.010Z,13.10
2018-04-12T04:28:59.041Z,13.00
2018-04-12T04:31:27.292Z,13.00
2018-04-12T04:33:55.565Z,13.10
2018-04-12T04:36:24.605Z,13.10
2018-04-12T04:38:52.878Z,13.10
2018-04-12T04:41:21.134Z,13.10
2018-04-12T04:43:49.441Z,13.20
2018-04-12T04:46:17.715Z,13.10
2018-04-12T04:48:45.969Z,13.10
2018-04-12T04:51:14.261Z,13.10
2018-04-12T04:53:42.580Z,13.20
2018-04-12T04:56:10.983Z,13.20
2018-04-12T04:58:39.260Z,13.10
2018-04-12T05:01:07.547Z,13.10
2018-04-12T05:03:35.820Z,13.10
2018-04-12T05:06:04.078Z,13.10
2018-04-12T05:08:32.328Z,13.10
2018-04-12T05:11:00.634Z,13.20
2018-04-12T05:13:28.905Z,13.30
2018-04-12T05:15:57.174Z,13.30
2018-04-12T05:18:25.481Z,13.40
2018-04-12T05:20:53.733Z,13.40
2018-04-12T05:23:21.991Z,13.40
2018-04-12T05:25:50.270Z,13.30
2018-04-12T05:28:19.309Z,13.50
2018-04-12T05:30:47.571Z,13.40
2018-04-12T05:33:15.894Z,13.50
2018-04-12T05:35:44.144Z,13.60
2018-04-12T05:38:12.413Z,13.70
2018-04-12T05:40:40.701Z,13.80
2018-04-12T05:43:08.977Z,13.80
2018-04-12T05:45:37.253Z,13.80
2018-04-12T05:48:05.516Z,13.80
2018-04-12T05:50:34.027Z,13.70
2018-04-12T05:53:02.276Z,13.80
2018-04-12T05:55:30.535Z,13.80
2018-04-12T05:57:59.673Z,13.80
2018-04-12T06:00:27.933Z,13.80
2018-04-12T06:02:56.238Z,13.80
2018-04-12T06:05:24.518Z,13.90
2018-04-12T06:07:53.505Z,14.00
2018-04-12T06:10:21.782Z,14.00
2018-04-12T06:12:50.097Z,14.10
2018-04-12T06:15:18.492Z,14.10
2018-04-12T06:17:46.855Z,14.10
2018-04-12T06:20:15.131Z,14.10
2018-04-12T06:22:43.573Z,14.30
2018-04-12T06:25:12.605Z,14.80
2018-04-12T06:27:41.022Z,14.80
2018-04-12T06:30:09.508Z,15.10
2018-04-12T06:32:37.850Z,15.50
2018-04-12T06:35:06.126Z,15.90
2018-04-12T06:37:34.409Z,16.30
2018-04-12T06:40:02.701Z,16.60
2018-04-12T06:42:30.977Z,16.90
2018-04-12T06:44:59.240Z,17.10
2018-04-12T06:47:27.532Z,17.40
2018-04-12T06:49:55.803Z,17.60
2018-04-12T06:52:24.054Z,17.90
2018-04-12T06:54:53.092Z,18.30
2018-04-12T06:57:21.359Z,18.20
2018-04-12T06:59:49.651Z,18.50
2018-04-12T07:02:17.941Z,18.70
2018-04-12T07:04:46.352Z,18.90
2018-04-12T07:07:14.599Z,19.20
2018-04-12T07:09:42.876Z,19.50
2018-04-12T07:12:11.200Z,19.90
2018-04-12T07:14:40.286Z,20.60
2018-04-12T07:17:08.528Z,20.60
2018-04-12T07:19:36.807Z,20.90
2018-04-12T07:22:05.062Z,21.00
2018-04-12T07:24:33.340Z,21.00
2018-04-12T07:27:01.594Z,21.10
2018-04-12T07:29:29.835Z,21.20
2018-04-12T07:31:58.105Z,21.30
2018-04-12T07:34:26.348Z,21.20
2018-04-12T07:36:54.656Z,21.20
2018-04-12T07:39:23.309Z,21.40
2018-04-12T07:41:52.354Z,22.20
2018-04-12T07:44:20.642Z,22.10
2018-04-12T07:46:48.901Z,22.40
2018-04-12T07:49:17.167Z,22.70
2018-04-12T07:51:45.573Z,23.00
2018-04-12T07:54:13.829Z,23.40
2018-04-12T07:56:42.135Z,23.80
2018-04-12T07:59:10.421Z,24.20
2018-04-12T08:01:38.708Z,24.50
2018-04-12T08:04:06.941Z,24.90
2018-04-12T08:06:35.972Z,25.80
2018-04-12T08:09:04.261Z,25.70
2018-04-12T08:11:32.522Z,25.90
2018-04-12T08:14:00.813Z,26.20
2018-04-12T08:16:29.076Z,26.70
2018-04-12T08:18:57.369Z,27.10
2018-04-12T08:21:25.891Z,27.40
2018-04-12T08:23:54.379Z,27.60
2018-04-12T08:26:22.885Z,28.10
2018-04-12T08:28:52.218Z,28.80
2018-04-12T08:31:20.768Z,28.70
2018-04-12T08:33:50.147Z,29.70
2018-04-12T08:36:18.736Z,29.60
2018-04-12T08:38:47.283Z,30.20
2018-04-12T08:41:15.808Z,30.50
2018-04-12T08:43:44.706Z,31.10
2018-04-12T08:46:13.181Z,31.70
2018-04-12T08:48:42.229Z,32.60
2018-04-12T08:51:10.485Z,32.50
2018-04-12T08:53:39.529Z,33.40
2018-04-12T08:56:07.811Z,33.40
2018-04-12T08:58:36.080Z,33.90
2018-04-12T09:01:04.332Z,34.20
2018-04-12T09:03:32.649Z,34.60
2018-04-12T09:06:00.906Z,34.80
2018-04-12T09:08:29.208Z,34.70
2018-04-12T09:10:57.489Z,34.80
2018-04-12T09:13:25.781Z,35.50
2018-04-12T09:15:54.044Z,36.10
2018-04-12T09:18:22.336Z,36.60
2018-04-12T09:20:50.840Z,37.00
2018-04-12T09:23:19.434Z,37.40
2018-04-12T09:25:47.796Z,37.80
2018-04-12T09:28:16.094Z,38.30
2018-04-12T09:30:44.312Z,37.70
2018-04-12T09:33:12.576Z,37.00
2018-04-12T09:35:40.842Z,35.90
2018-04-12T09:38:09.189Z,35.50
2018-04-12T09:40:37.597Z,35.50
2018-04-12T09:43:06.637Z,35.60
2018-04-12T09:45:34.938Z,35.60
2018-04-12T09:48:03.218Z,35.70
2018-04-12T09:50:31.456Z,35.70
2018-04-12T09:53:00.480Z,34.50
2018-04-12T09:55:28.768Z,34.50
2018-04-12T09:57:57.043Z,34.00
2018-04-12T10:00:27.215Z,33.30
2018-04-12T10:02:55.829Z,32.70
2018-04-12T10:05:31.519Z,30.70
2018-04-12T10:08:05.384Z,30.60
2018-04-12T10:10:34.415Z,29.20
2018-04-12T10:13:02.664Z,29.10
2018-04-12T10:15:31.701Z,28.80
2018-04-12T10:17:59.952Z,28.80
2018-04-12T10:20:28.970Z,28.70
2018-04-12T10:22:57.259Z,28.60
2018-04-12T10:25:25.677Z,28.40
2018-04-12T10:27:53.916Z,27.70
2018-04-12T10:30:22.167Z,27.40
2018-04-12T10:32:51.247Z,27.40
2018-04-12T10:35:19.476Z,27.30
2018-04-12T10:37:47.737Z,27.70
2018-04-12T10:40:15.978Z,27.80
2018-04-12T10:42:44.245Z,28.00
2018-04-12T10:45:13.402Z,27.90
2018-04-12T10:47:41.705Z,27.70
2018-04-12T10:50:09.938Z,27.30
2018-04-12T10:52:38.975Z,26.80
2018-04-12T10:55:07.244Z,26.70
2018-04-12T10:57:35.497Z,26.50
2018-04-12T11:00:03.768Z,26.50
2018-04-12T11:02:32.793Z,26.70
2018-04-12T11:05:01.104Z,26.70
2018-04-12T11:07:29.364Z,26.80
2018-04-12T11:09:57.644Z,26.40
2018-04-12T11:12:25.885Z,25.90
2018-04-12T11:14:54.926Z,25.60
2018-04-12T11:17:23.206Z,25.50
2018-04-12T11:19:51.485Z,25.70
2018-04-12T11:22:19.734Z,25.90
2018-04-12T11:24:48.872Z,26.40
2018-04-12T11:27:17.253Z,26.40
2018-04-12T11:29:45.539Z,27.00
2018-04-12T11:32:13.768Z,27.20
2018-04-12T11:34:42.051Z,27.90
2018-04-12T11:37:11.073Z,29.30
2018-04-12T11:39:39.346Z,29.30
2018-04-12T11:42:07.590Z,29.80
2018-04-12T11:44:36.642Z,30.00
2018-04-12T11:47:04.894Z,30.00
2018-04-12T11:49:33.162Z,30.60
2018-04-12T11:52:02.169Z,30.30
2018-04-12T11:54:30.466Z,30.30
2018-04-12T11:56:58.751Z,30.20
2018-04-12T11:59:27.025Z,30.40
2018-04-12T12:01:55.301Z,31.00
2018-04-12T12:04:23.584Z,31.70
2018-04-12T12:06:51.828Z,31.20
2018-04-12T12:09:20.857Z,29.80
2018-04-12T12:11:49.097Z,29.80
2018-04-12T12:14:18.138Z,28.50
2018-04-12T12:16:46.412Z,28.40
2018-04-12T12:19:14.684Z,28.00
2018-04-12T12:21:42.944Z,27.80
2018-04-12T12:24:11.214Z,27.60
2018-04-12T12:26:40.249Z,27.00
2018-04-12T12:29:08.525Z,27.00
2018-04-12T12:31:36.776Z,26.70
2018-04-12T12:34:05.793Z,25.80
2018-04-12T12:36:34.090Z,25.80
2018-04-12T12:39:02.475Z,25.50
2018-04-12T12:41:30.748Z,25.30
2018-04-12T12:43:59.733Z,25.10
2018-04-12T12:46:28.018Z,25.10
2018-04-12T12:48:56.297Z,25.20
2018-04-12T12:51:24.542Z,25.10
2018-04-12T12:53:52.848Z,25.20
2018-04-12T12:56:21.133Z,25.00
2018-04-12T12:58:49.414Z,24.90
2018-04-12T13:01:17.693Z,24.50
2018-04-12T13:03:45.987Z,24.30
2018-04-12T13:06:14.340Z,24.10
2018-04-12T13:08:42.642Z,23.90
2018-04-12T13:11:10.890Z,23.60
2018-04-12T13:13:39.165Z,23.10
2018-04-12T13:16:07.473Z,23.00
2018-04-12T13:18:35.757Z,22.90
2018-04-12T13:21:04.033Z,22.80
2018-04-12T13:23:32.301Z,22.80
2018-04-12T13:26:00.559Z,22.70
2018-04-12T13:28:29.586Z,22.90
2018-04-12T13:30:57.871Z,22.80
2018-04-12T13:33:26.151Z,22.70
2018-04-12T13:35:54.428Z,22.60
2018-04-12T13:38:22.718Z,22.50
2018-04-12T13:40:50.969Z,22.40
2018-04-12T13:43:19.239Z,22.40
2018-04-12T13:45:47.485Z,22.40
2018-04-12T13:48:16.534Z,22.40
2018-04-12T13:50:45.017Z,22.30
2018-04-12T13:53:13.283Z,22.20
2018-04-12T13:55:41.577Z,22.10
2018-04-12T13:58:09.867Z,22.00
2018-04-12T14:00:38.125Z,21.90
2018-04-12T14:03:06.373Z,21.90
2018-04-12T14:05:35.397Z,22.10
2018-04-12T14:08:03.704Z,22.00
2018-04-12T14:10:31.962Z,22.20
2018-04-12T14:13:00.212Z,22.10
2018-04-12T14:15:29.254Z,22.20
2018-04-12T14:17:57.500Z,22.20
2018-04-12T14:20:25.804Z,22.30
2018-04-12T14:22:54.085Z,22.20
2018-04-12T14:25:22.364Z,22.10
2018-04-12T14:27:50.630Z,22.20
2018-04-12T14:30:18.893Z,22.30
2018-04-12T14:32:47.201Z,22.40
2018-04-12T14:35:15.493Z,22.50
2018-04-12T14:37:45.680Z,22.60
2018-04-12T14:40:13.945Z,22.60
2018-04-12T14:42:43.020Z,22.50
2018-04-12T14:45:11.283Z,22.50
2018-04-12T14:47:39.534Z,22.50
2018-04-12T14:50:07.800Z,22.40
2018-04-12T14:52:36.093Z,22.40
2018-04-12T14:55:04.381Z,22.40
2018-04-12T14:57:32.661Z,22.30
2018-04-12T15:00:00.933Z,22.40
2018-04-12T15:02:29.191Z,22.30
2018-04-12T15:04:57.456Z,22.30
2018-04-12T15:07:26.467Z,22.30
2018-04-12T15:09:54.729Z,22.30
2018-04-12T15:12:23.784Z,22.10
2018-04-12T15:14:52.254Z,22.10
2018-04-12T15:17:20.503Z,22.10
2018-04-12T15:19:49.528Z,22.00
2018-04-12T15:22:17.784Z,22.00
2018-04-12T15:24:46.124Z,22.10
2018-04-12T15:27:14.346Z,22.00
2018-04-12T15:29:42.670Z,22.00
2018-04-12T15:32:10.988Z,22.00
2018-04-12T15:34:39.213Z,22.00
2018-04-12T15:37:07.525Z,22.10
2018-04-12T15:39:35.756Z,22.10
2018-04-12T15:42:04.054Z,22.10
2018-04-12T15:44:32.317Z,22.00
2018-04-12T15:47:00.567Z,22.00
2018-04-12T15:49:29.592Z,21.90
2018-04-12T15:51:57.864Z,21.90
2018-04-12T15:54:26.885Z,21.90
2018-04-12T15:56:55.143Z,21.90
2018-04-12T15:59:23.537Z,21.80
2018-04-12T16:01:51.787Z,21.80
2018-04-12T16:04:20.819Z,21.70
2018-04-12T16:06:49.132Z,21.70
2018-04-12T16:09:17.417Z,21.70
2018-04-12T16:11:45.673Z,21.70
2018-04-12T16:14:13.975Z,21.70
2018-04-12T16:16:42.182Z,21.70
2018-04-12T16:19:11.455Z,21.70
2018-04-12T16:21:39.673Z,21.70
2018-04-12T16:24:07.941Z,21.80
2018-04-12T16:26:36.949Z,21.70
2018-04-12T16:29:05.961Z,21.50
2018-04-12T16:31:34.211Z,21.50
2018-04-12T16:34:03.242Z,21.40
2018-04-12T16:36:31.573Z,21.40
2018-04-12T16:38:59.881Z,21.30
2018-04-12T16:41:28.067Z,21.30
2018-04-12T16:43:56.328Z,21.10
2018-04-12T16:46:25.370Z,20.90
2018-04-12T16:48:53.638Z,20.90
2018-04-12T16:51:21.911Z,20.80
2018-04-12T16:53:50.203Z,20.80
2018-04-12T16:56:18.471Z,20.80
2018-04-12T16:58:46.723Z,20.80
2018-04-12T17:01:15.768Z,20.70
2018-04-12T17:03:44.045Z,20.60
2018-04-12T17:06:12.296Z,20.60
2018-04-12T17:08:41.300Z,20.50
2018-04-12T17:11:09.561Z,20.50
2018-04-12T17:13:38.565Z,20.40
2018-04-12T17:16:06.823Z,20.30
2018-04-12T17:18:35.064Z,20.40
2018-04-12T17:21:03.334Z,20.30
2018-04-12T17:23:31.569Z,20.30
2018-04-12T17:26:00.610Z,20.20
2018-04-12T17:28:28.848Z,20.20
2018-04-12T17:30:57.985Z,20.10
2018-04-12T17:33:26.234Z,20.00
2018-04-12T17:35:55.262Z,20.00
2018-04-12T17:38:23.506Z,20.00
2018-04-12T17:40:52.530Z,19.90
2018-04-12T17:43:20.831Z,19.90
2018-04-12T17:45:49.076Z,19.90
2018-04-12T17:48:17.327Z,19.80
2018-04-12T17:50:46.399Z,19.70
2018-04-12T17:53:14.643Z,19.70
2018-04-12T17:55:42.908Z,19.70
2018-04-12T17:58:11.156Z,19.60
2018-04-12T18:00:39.480Z,19.50
2018-04-12T18:03:07.684Z,19.50
2018-04-12T18:05:35.953Z,19.50
2018-04-12T18:08:04.605Z,19.50
2018-04-12T18:10:38.655Z,19.50
2018-04-12T18:13:07.474Z,19.40
2018-04-12T18:15:35.735Z,19.50
2018-04-12T18:18:03.982Z,19.50
2018-04-12T18:20:32.324Z,19.40
2018-04-12T18:23:00.555Z,19.40
2018-04-12T18:25:28.844Z,19.40
2018-04-12T18:27:57.097Z,19.40
2018-04-12T18:30:25.365Z,19.40
2018-04-12T18:32:54.397Z,19.40
2018-04-12T18:35:22.669Z,19.40
2018-04-12T18:37:50.967Z,19.40
2018-04-12T18:40:19.242Z,19.40
2018-04-12T18:42:47.492Z,19.50
2018-04-12T18:45:15.774Z,19.50
2018-04-12T18:47:44.055Z,19.40
2018-04-12T18:50:12.495Z,19.50
2018-04-12T18:52:40.764Z,19.50
2018-04-12T18:55:09.031Z,19.40
2018-04-12T18:57:37.295Z,19.40
2018-04-12T19:00:05.558Z,19.50
2018-04-12T19:02:33.804Z,19.40
2018-04-12T19:05:04.080Z,19.30
2018-04-12T19:07:32.330Z,19.30
2018-04-12T19:10:00.636Z,19.20
2018-04-12T19:12:28.881Z,19.20
2018-04-12T19:14:57.907Z,19.00
2018-04-12T19:17:26.145Z,19.00
2018-04-12T19:19:54.399Z,19.00
2018-04-12T19:22:22.666Z,18.90
2018-04-12T19:24:50.924Z,18.90
2018-04-12T19:27:19.169Z,18.80
2018-04-12T19:29:48.196Z,18.70
2018-04-12T19:32:16.447Z,18.70
2018-04-12T19:34:45.583Z,18.50
2018-04-12T19:37:13.899Z,18.50
2018-04-12T19:39:42.252Z,18.50
2018-04-12T19:42:10.501Z,18.40
2018-04-12T19:44:38.770Z,18.40
2018-04-12T19:47:07.800Z,18.20
2018-04-12T19:49:36.072Z,18.20
2018-04-12T19:52:04.399Z,18.20
2018-04-12T19:54:32.636Z,18.10
2018-04-12T19:57:00.890Z,18.10
2018-04-12T19:59:29.150Z,18.00
2018-04-12T20:01:58.177Z,18.00
2018-04-12T20:04:26.485Z,18.00
2018-04-12T20:06:54.733Z,18.00
2018-04-12T20:09:22.970Z,17.90
2018-04-12T20:11:51.225Z,17.80
2018-04-12T20:14:19.563Z,17.80
2018-04-12T20:16:48.618Z,17.60
2018-04-12T20:19:16.897Z,17.60
2018-04-12T20:21:45.173Z,17.50
2018-04-12T20:24:13.708Z,17.50
2018-04-12T20:26:42.751Z,17.50
2018-04-12T20:29:10.989Z,17.40
2018-04-12T20:31:40.004Z,17.40
2018-04-12T20:34:08.316Z,17.40
2018-04-12T20:36:36.569Z,17.40
2018-04-12T20:39:04.814Z,17.40
2018-04-12T20:41:33.069Z,17.40
2018-04-12T20:44:01.317Z,17.20
2018-04-12T20:46:29.574Z,17.20
2018-04-12T20:48:57.918Z,17.10
2018-04-12T20:51:26.153Z,17.10
2018-04-12T20:53:54.392Z,17.00
2018-04-12T20:56:23.415Z,17.00
2018-04-12T20:58:51.669Z,17.00
2018-04-12T21:01:20.684Z,17.00
2018-04-12T21:03:48.930Z,17.00
2018-04-12T21:06:18.740Z,17.00
2018-04-12T21:08:47.753Z,17.00
2018-04-12T21:11:16.016Z,16.90
2018-04-12T21:13:44.366Z,16.90
2018-04-12T21:16:12.669Z,16.90
2018-04-12T21:18:40.924Z,16.90
2018-04-12T21:21:09.177Z,16.90
2018-04-12T21:23:37.483Z,16.80
2018-04-12T21:26:05.755Z,16.70
2018-04-12T21:28:34.002Z,16.70
2018-04-12T21:31:03.028Z,16.60
2018-04-12T21:33:31.440Z,16.50
2018-04-12T21:35:59.697Z,16.50
2018-04-12T21:38:27.939Z,16.50
2018-04-12T21:40:57.044Z,16.40
2018-04-12T21:43:26.057Z,16.30
2018-04-12T21:45:54.362Z,16.30
2018-04-12T21:48:22.639Z,16.30
2018-04-12T21:50:50.944Z,16.20
2018-04-12T21:53:19.230Z,16.20
2018-04-12T21:55:47.529Z,16.10
2018-04-12T21:58:17.297Z,16.00
2018-04-12T22:00:45.578Z,16.00
2018-04-12T22:03:13.849Z,16.00
2018-04-12T22:05:42.164Z,16.00
2018-04-12T22:08:11.965Z,15.90
2018-04-12T22:10:40.229Z,15.90
2018-04-12T22:13:08.482Z,15.90
2018-04-12T22:15:36.755Z,15.90
2018-04-12T22:18:04.999Z,15.80
2018-04-12T22:20:34.052Z,15.70
2018-04-12T22:23:02.354Z,15.70
2018-04-12T22:25:30.625Z,15.70
2018-04-12T22:27:58.974Z,15.60
2018-04-12T22:30:27.380Z,15.50
2018-04-12T22:32:55.667Z,15.40
2018-04-12T22:35:23.938Z,15.30
2018-04-12T22:37:52.197Z,15.30
2018-04-12T22:40:20.509Z,15.20
2018-04-12T22:42:48.750Z,15.20
2018-04-12T22:45:17.765Z,15.20
2018-04-12T22:47:46.379Z,15.10
2018-04-12T22:50:14.633Z,15.20
2018-04-12T22:52:42.928Z,15.10
2018-04-12T22:55:11.238Z,15.10
2018-04-12T22:57:39.476Z,15.20
2018-04-12T23:00:07.733Z,15.10
2018-04-12T23:02:35.842Z,15.20
2018-04-12T23:05:04.109Z,15.20
2018-04-12T23:07:32.375Z,15.10
2018-04-12T23:10:00.627Z,15.10
2018-04-12T23:12:29.667Z,15.00
2018-04-12T23:14:57.988Z,14.90
2018-04-12T23:17:26.332Z,14.90
2018-04-12T23:19:54.587Z,14.90
2018-04-12T23:22:22.853Z,14.80
2018-04-12T23:24:51.961Z,14.70
2018-04-12T23:27:20.997Z,14.60
2018-04-12T23:29:49.243Z,14.60
2018-04-12T23:32:17.555Z,14.60
2018-04-12T23:34:45.835Z,14.60
2018-04-12T23:37:14.110Z,14.60
2018-04-12T23:39:42.360Z,14.50
2018-04-12T23:42:11.420Z,14.50
2018-04-12T23:44:39.666Z,14.50
2018-04-12T23:47:07.954Z,14.50
2018-04-12T23:49:36.198Z,14.40
2018-04-12T23:52:04.501Z,14.40
2018-04-12T23:54:32.756Z,14.40
2018-04-12T23:57:01.057Z,14.40
2018-04-12T23:59:29.331Z,14.40
